Dutch Harbor, AK

6:43 AM AKST on February 19, 2017 (GMT -0900)
Unalaska | | Change Station

Elev 20 ft 53.90 °N, 166.54 °W | Updated 47 minutes ago

Snow
Snow
23 °F
Feels Like 18 °F
N
4
Wind Variable Wind from Variable
Gusts 17 mph

Today
High -- | Low -- °F
--% Chance of Precip.
Yesterday
High -- | Low -- °F
Precip. -- in
Pressure 29.99 in
Visibility 9.0 miles
Clouds Few 2600 ft
Overcast 3700 ft
Windchill 18 °F
Dew Point 13 °F
Humidity 65%
Rainfall 0.00 in
Snow Depth Not available.
9:15 AM 7:24 PM
Last Quarter, 42% visible
METAR PADU 191456Z AUTO VRB03G15KT 9SM -SN FEW026 OVC037 M05/M11 A2998 RMK AO2 SLP153 P0000 60000 T10501106 51004 FZRANO
Pressure 29.99 in
Visibility 9.0 miles
Clouds Few 2600 ft
Overcast 3700 ft
Windchill 18 °F
Dew Point 13 °F
Humidity 65%
Rainfall 0.00 in
Snow Depth Not available.
9:15 AM 7:24 PM
Last Quarter, 42% visible
METAR PADU 191456Z AUTO VRB03G15KT 9SM -SN FEW026 OVC037 M05/M11 A2998 RMK AO2 SLP153 P0000 60000 T10501106 51004 FZRANO

Get Your Daily Forecast Email!

Thanks for signing up!

Be on the lookout for a verification email in your inbox.

You'll start receiving the daily forecast at 8 AM.

×

10-Day Weather Forecast

Almanac

Astronomy

Feb. 19, 2017 Rise Set
Actual Time
Civil Twilight
Nautical Twilight
Astronomical Twilight
Moon
Length of Visible Light
Length of Day
Tomorrow will be .
, % of the Moon is Illuminated

Today's Extremes

State Highs State Lows

Community

WunderPhotos

Upload Photos

1,962,540 photos uploaded!

WunderBlog® & News

Nearby

Air Quality

  Air Quality AQ Index Pollutant
Not available.

Snow Depth

Station Depth Elevation

Earthquake Activity

City Distance Mag. Time & Date
Minimum magnitude displayed is 2.5.

Coastal Water Temperatures

Place Temperature

Stations

Nearby Weather Stations

Station Location Temp. Windchill Dew Point Humidity Wind Precip. Elev Updated Type
                   

Watches & Warnings

There are currently no watches in effect.